createdAt,value
2018-03-07T00:00:17.629Z,30.6
2018-03-07T00:01:07.140Z,30.5
2018-03-07T00:01:57.773Z,30.4
2018-03-07T00:02:47.498Z,30.1
2018-03-07T00:03:37.587Z,30.1
2018-03-07T00:04:27.766Z,30.8
2018-03-07T00:05:16.268Z,31.4
2018-03-07T00:06:07.536Z,32.1
2018-03-07T00:06:57.557Z,32.9
2018-03-07T00:07:47.358Z,33.8
2018-03-07T00:08:37.917Z,34.5
2018-03-07T00:09:27.175Z,34.1
2018-03-07T00:10:18.328Z,33.9
2018-03-07T00:11:08.132Z,33.7
2018-03-07T00:11:58.144Z,33.6
2018-03-07T00:12:48.211Z,33.5
2018-03-07T00:13:37.528Z,33.3
2018-03-07T00:14:28.654Z,33.3
2018-03-07T00:15:17.558Z,33.1
2018-03-07T00:16:08.716Z,33
2018-03-07T00:16:58.503Z,32.9
2018-03-07T00:17:48.548Z,32.8
2018-03-07T00:18:38.293Z,32.6
2018-03-07T00:19:28.603Z,32.5
2018-03-07T00:20:19.215Z,32.4
2018-03-07T00:21:08.995Z,32.3
2018-03-07T00:21:58.663Z,32.1
2018-03-07T00:22:49.178Z,32
2018-03-07T00:23:39.720Z,31.9
2018-03-07T00:24:29.230Z,31.8
2018-03-07T00:25:19.838Z,31.6
2018-03-07T00:26:09.882Z,31.5
2018-03-07T00:27:00.430Z,31.4
2018-03-07T00:27:49.380Z,31.3
2018-03-07T00:28:40.270Z,31.1
2018-03-07T00:29:30.609Z,31
2018-03-07T00:30:19.602Z,30.9
2018-03-07T00:31:10.689Z,30.8
2018-03-07T00:32:00.230Z,30.6
2018-03-07T00:32:50.287Z,30.5
2018-03-07T00:33:40.933Z,30
2018-03-07T00:34:29.890Z,30.5
2018-03-07T00:35:20.720Z,31.1
2018-03-07T00:36:10.781Z,31.9
2018-03-07T00:37:00.839Z,32.6
2018-03-07T00:37:51.129Z,33.4
2018-03-07T00:38:41.213Z,34.2
2018-03-07T00:39:30.859Z,34.4
2018-03-07T00:40:21.307Z,34.1
2018-03-07T00:41:10.384Z,33.8
2018-03-07T00:42:00.666Z,33.7
2018-03-07T00:42:51.019Z,33.6
2018-03-07T00:43:39.223Z,33.4
2018-03-07T00:44:29.671Z,33.4
2018-03-07T00:45:19.452Z,33.3
2018-03-07T00:46:09.962Z,33.1
2018-03-07T00:46:59.877Z,33
2018-03-07T00:47:50.565Z,32.9
2018-03-07T00:48:39.577Z,32.8
2018-03-07T00:49:29.838Z,32.6
2018-03-07T00:50:19.277Z,32.5
2018-03-07T00:51:09.671Z,32.4
2018-03-07T00:52:00.136Z,32.3
2018-03-07T00:52:50.648Z,32.1
2018-03-07T00:53:39.709Z,32
2018-03-07T00:54:30.466Z,31.9
2018-03-07T00:55:21.091Z,31.8
2018-03-07T00:56:11.399Z,31.6
2018-03-07T00:57:02.051Z,31.5
2018-03-07T00:57:51.536Z,31.4
2018-03-07T00:58:41.602Z,31.3
2018-03-07T00:59:31.891Z,31.2
2018-03-07T01:00:21.947Z,31
2018-03-07T01:01:12.304Z,30.9
2018-03-07T01:02:01.854Z,30.8
2018-03-07T01:02:52.160Z,30.7
2018-03-07T01:03:41.634Z,30.4
2018-03-07T01:04:31.705Z,30.2
2018-03-07T01:05:22.045Z,30.8
2018-03-07T01:06:12.652Z,31.5
2018-03-07T01:07:03.215Z,32.1
2018-03-07T01:07:52.183Z,32.9
2018-03-07T01:08:42.525Z,33.6
2018-03-07T01:09:32.800Z,34.5
2018-03-07T01:10:22.372Z,34.3
2018-03-07T01:11:12.427Z,34
2018-03-07T01:12:03.070Z,33.8
2018-03-07T01:12:53.013Z,33.6
2018-03-07T01:13:43.472Z,33.5
2018-03-07T01:14:33.237Z,33.4
2018-03-07T01:15:23.019Z,33.3
2018-03-07T01:16:13.218Z,33.2
2018-03-07T01:17:03.352Z,33.1
2018-03-07T01:17:52.058Z,33
2018-03-07T01:18:43.465Z,32.8
2018-03-07T01:19:33.886Z,32.7
2018-03-07T01:20:23.816Z,32.6
2018-03-07T01:21:13.909Z,32.4
2018-03-07T01:22:03.936Z,32.3
2018-03-07T01:22:53.715Z,32.2
2018-03-07T01:23:44.056Z,32.1
2018-03-07T01:24:34.169Z,31.9
2018-03-07T01:25:24.237Z,31.8
2018-03-07T01:26:13.972Z,31.7
2018-03-07T01:27:04.040Z,31.6
2018-03-07T01:27:53.184Z,31.4
2018-03-07T01:28:43.832Z,31.3
2018-03-07T01:29:33.884Z,31.2
2018-03-07T01:30:24.541Z,31.1
2018-03-07T01:31:13.222Z,30.9
2018-03-07T01:32:04.115Z,30.9
2018-03-07T01:32:53.951Z,30.7
2018-03-07T01:33:44.232Z,30.6
2018-03-07T01:34:34.036Z,30.1
2018-03-07T01:35:23.841Z,30.4
2018-03-07T01:36:14.434Z,31
2018-03-07T01:37:04.694Z,31.7
2018-03-07T01:37:55.068Z,32.3
2018-03-07T01:38:45.370Z,33.1
2018-03-07T01:39:34.883Z,33.8
2018-03-07T01:40:25.204Z,34.6
2018-03-07T01:41:14.951Z,34.2
2018-03-07T01:42:05.336Z,33.9
2018-03-07T01:42:55.099Z,33.8
2018-03-07T01:43:44.873Z,33.6
2018-03-07T01:44:35.491Z,33.5
2018-03-07T01:45:24.981Z,33.4
2018-03-07T01:46:15.339Z,33.3
2018-03-07T01:47:04.880Z,33.1
2018-03-07T01:47:55.462Z,33
2018-03-07T01:48:45.784Z,32.9
2018-03-07T01:49:35.289Z,32.8
2018-03-07T01:50:25.895Z,32.7
2018-03-07T01:51:15.692Z,32.6
2018-03-07T01:52:05.413Z,32.4
2018-03-07T01:52:55.198Z,32.3
2018-03-07T01:53:45.560Z,32.1
2018-03-07T01:54:36.155Z,32
2018-03-07T01:55:26.243Z,31.9
2018-03-07T01:56:15.996Z,31.8
2018-03-07T01:57:06.073Z,31.6
2018-03-07T01:57:56.415Z,31.5
2018-03-07T01:58:46.165Z,31.4
2018-03-07T01:59:35.985Z,31.3
2018-03-07T02:00:26.324Z,31.2
2018-03-07T02:01:16.914Z,31.1
2018-03-07T02:02:06.397Z,30.9
2018-03-07T02:02:56.023Z,30.8
2018-03-07T02:03:46.827Z,30.7
2018-03-07T02:04:36.012Z,30.5
2018-03-07T02:05:26.060Z,30.1
2018-03-07T02:06:16.722Z,30.5
2018-03-07T02:07:05.879Z,31.1
2018-03-07T02:07:55.979Z,31.8
2018-03-07T02:08:46.672Z,32.4
2018-03-07T02:09:36.982Z,33.1
2018-03-07T02:10:27.289Z,33.9
2018-03-07T02:11:17.034Z,34.6
2018-03-07T02:12:07.374Z,34.3
2018-03-07T02:12:55.861Z,33.9
2018-03-07T02:13:46.772Z,33.8
2018-03-07T02:14:36.233Z,33.6
2018-03-07T02:15:26.346Z,33.5
2018-03-07T02:16:15.822Z,33.4
2018-03-07T02:17:06.809Z,33.3
2018-03-07T02:17:56.098Z,33.2
2018-03-07T02:18:46.821Z,33.1
2018-03-07T02:19:35.996Z,32.9
2018-03-07T02:20:26.629Z,32.8
2018-03-07T02:21:16.174Z,32.7
2018-03-07T02:22:06.673Z,32.6
2018-03-07T02:22:56.353Z,32.4
2018-03-07T02:23:45.290Z,32.3
2018-03-07T02:24:36.070Z,32.2
2018-03-07T02:25:26.671Z,32.1
2018-03-07T02:26:16.446Z,31.9
2018-03-07T02:27:06.449Z,31.8
2018-03-07T02:27:57.507Z,31.7
2018-03-07T02:28:46.826Z,31.6
2018-03-07T02:29:37.778Z,31.4
2018-03-07T02:30:26.573Z,31.3
2018-03-07T02:31:17.515Z,31.2
2018-03-07T02:32:07.782Z,31.1
2018-03-07T02:32:57.349Z,30.9
2018-03-07T02:33:48.065Z,30.8
2018-03-07T02:34:36.788Z,30.8
2018-03-07T02:35:28.256Z,30.6
2018-03-07T02:36:17.850Z,30.1
2018-03-07T02:37:08.174Z,30.4
2018-03-07T02:37:56.814Z,31
2018-03-07T02:38:48.315Z,31.6
2018-03-07T02:39:37.887Z,32.3
2018-03-07T02:40:28.340Z,32.9
2018-03-07T02:41:18.119Z,33.6
2018-03-07T02:42:06.999Z,34.4
2018-03-07T02:42:57.527Z,34.4
2018-03-07T02:43:49.432Z,34
2018-03-07T02:44:37.550Z,33.8
2018-03-07T02:45:29.199Z,33.6
2018-03-07T02:46:18.406Z,33.5
2018-03-07T02:47:09.019Z,33.4
2018-03-07T02:47:59.340Z,33.3
2018-03-07T02:48:49.946Z,33.2
2018-03-07T02:49:39.761Z,33.1
2018-03-07T02:50:29.757Z,32.9
2018-03-07T02:51:19.820Z,32.8
2018-03-07T02:52:10.476Z,32.7
2018-03-07T02:52:59.684Z,32.6
2018-03-07T02:53:50.111Z,32.4
2018-03-07T02:54:40.081Z,32.3
2018-03-07T02:55:29.894Z,32.2
2018-03-07T02:56:19.908Z,32.1
2018-03-07T02:57:10.209Z,31.9
2018-03-07T02:57:59.790Z,31.8
2018-03-07T02:58:50.312Z,31.7
2018-03-07T02:59:40.394Z,31.6
2018-03-07T03:00:30.269Z,31.4
2018-03-07T03:01:20.799Z,31.3
2018-03-07T03:02:10.858Z,31.3
2018-03-07T03:03:00.389Z,31.1
2018-03-07T03:03:50.433Z,30.9
2018-03-07T03:04:41.023Z,30.8
2018-03-07T03:05:30.566Z,30.7
2018-03-07T03:06:20.630Z,30.6
2018-03-07T03:07:10.627Z,30.1
2018-03-07T03:08:00.668Z,30.3
2018-03-07T03:08:51.037Z,30.9
2018-03-07T03:09:41.283Z,31.5
2018-03-07T03:10:31.421Z,32.1
2018-03-07T03:11:21.477Z,32.8
2018-03-07T03:12:11.520Z,33.4
2018-03-07T03:13:01.287Z,34.2
2018-03-07T03:13:51.055Z,34.5
2018-03-07T03:14:41.667Z,34.1
2018-03-07T03:15:31.168Z,33.8
2018-03-07T03:16:22.105Z,33.6
2018-03-07T03:17:11.832Z,33.5
2018-03-07T03:18:01.103Z,33.4
2018-03-07T03:18:51.974Z,33.3
2018-03-07T03:19:42.311Z,33.2
2018-03-07T03:20:32.078Z,33.1
2018-03-07T03:21:22.375Z,32.9
2018-03-07T03:22:12.478Z,32.8
2018-03-07T03:23:01.974Z,32.7
2018-03-07T03:23:52.324Z,32.6
2018-03-07T03:24:41.848Z,32.4
2018-03-07T03:25:32.502Z,32.3
2018-03-07T03:26:21.927Z,32.2
2018-03-07T03:27:12.798Z,32.1
2018-03-07T03:28:02.012Z,31.9
2018-03-07T03:28:52.410Z,31.8
2018-03-07T03:29:42.177Z,31.7
2018-03-07T03:30:31.678Z,31.6
2018-03-07T03:31:22.348Z,31.4
2018-03-07T03:32:12.360Z,31.3
2018-03-07T03:33:02.985Z,31.3
2018-03-07T03:33:52.702Z,31.1
2018-03-07T03:34:43.057Z,30.9
2018-03-07T03:35:32.881Z,30.9
2018-03-07T03:36:21.492Z,30.8
2018-03-07T03:37:11.831Z,30.6
2018-03-07T03:38:02.793Z,30.1
2018-03-07T03:38:52.248Z,30.4
2018-03-07T03:39:42.372Z,30.9
2018-03-07T03:40:32.653Z,31.4
2018-03-07T03:41:22.296Z,32.1
2018-03-07T03:42:11.859Z,32.6
2018-03-07T03:43:03.627Z,33.3
2018-03-07T03:43:53.691Z,34.1
2018-03-07T03:44:43.989Z,34.6
2018-03-07T03:45:33.591Z,34.1
2018-03-07T03:46:23.288Z,33.9
2018-03-07T03:47:13.664Z,33.6
2018-03-07T03:48:04.017Z,33.5
2018-03-07T03:48:53.781Z,33.4
2018-03-07T03:49:43.323Z,33.3
2018-03-07T03:50:33.866Z,33.2
2018-03-07T03:51:24.451Z,33.1
2018-03-07T03:52:13.690Z,32.9
2018-03-07T03:53:04.314Z,32.8
2018-03-07T03:53:53.521Z,32.7
2018-03-07T03:54:44.358Z,32.5
2018-03-07T03:55:33.943Z,32
2018-03-07T03:56:23.987Z,31.5
2018-03-07T03:57:14.053Z,31.1
2018-03-07T03:58:04.685Z,30.9
2018-03-07T03:58:54.675Z,30.8
2018-03-07T03:59:44.168Z,30.6
2018-03-07T04:00:34.517Z,30.4
2018-03-07T04:01:24.085Z,30.3
2018-03-07T04:02:13.883Z,29.8
2018-03-07T04:03:03.450Z,30.3
2018-03-07T04:03:54.632Z,31
2018-03-07T04:04:44.805Z,31.7
2018-03-07T04:05:34.909Z,32.4
2018-03-07T04:06:25.528Z,33.1
2018-03-07T04:07:15.004Z,33.8
2018-03-07T04:08:04.020Z,34.5
2018-03-07T04:08:55.168Z,34.3
2018-03-07T04:09:45.695Z,33.9
2018-03-07T04:10:35.544Z,33.7
2018-03-07T04:11:25.090Z,33.6
2018-03-07T04:12:15.132Z,33.4
2018-03-07T04:13:04.634Z,33.3
2018-03-07T04:13:54.687Z,33.2
2018-03-07T04:14:45.604Z,33.1
2018-03-07T04:15:34.237Z,33
2018-03-07T04:16:25.197Z,32.9
2018-03-07T04:17:15.219Z,32.8
2018-03-07T04:18:05.512Z,32.4
2018-03-07T04:18:55.301Z,31.9
2018-03-07T04:19:45.840Z,31.5
2018-03-07T04:20:35.621Z,31.2
2018-03-07T04:21:26.264Z,31
2018-03-07T04:22:15.766Z,30.9
2018-03-07T04:23:05.519Z,30.8
2018-03-07T04:23:55.864Z,30.6
2018-03-07T04:24:46.229Z,30.5
2018-03-07T04:25:36.753Z,30.4
2018-03-07T04:26:26.317Z,29.8
2018-03-07T04:27:16.647Z,30.5
2018-03-07T04:28:06.464Z,31.1
2018-03-07T04:28:56.244Z,31.8
2018-03-07T04:29:46.561Z,32.4
2018-03-07T04:30:36.296Z,33.1
2018-03-07T04:31:26.913Z,33.8
2018-03-07T04:32:17.244Z,34.5
2018-03-07T04:33:07.075Z,34.1
2018-03-07T04:33:56.242Z,33.8
2018-03-07T04:34:46.627Z,33.6
2018-03-07T04:35:36.075Z,33.5
2018-03-07T04:36:25.575Z,33.4
2018-03-07T04:37:17.613Z,33.3
2018-03-07T04:38:06.828Z,33.2
2018-03-07T04:38:56.905Z,33.1
2018-03-07T04:39:46.686Z,32.9
2018-03-07T04:40:36.531Z,32.8
2018-03-07T04:41:27.343Z,32.6
2018-03-07T04:42:17.691Z,32.1
2018-03-07T04:43:07.477Z,31.7
2018-03-07T04:43:57.777Z,31.3
2018-03-07T04:44:47.581Z,31.1
2018-03-07T04:45:37.425Z,30.9
2018-03-07T04:46:27.957Z,30.8
2018-03-07T04:47:18.010Z,30.6
2018-03-07T04:48:08.193Z,30.5
2018-03-07T04:48:57.911Z,30.4
2018-03-07T04:49:48.155Z,30.1
2018-03-07T04:50:38.265Z,29.8
2018-03-07T04:51:28.329Z,30.5
2018-03-07T04:52:16.420Z,31.2
2018-03-07T04:53:06.499Z,31.9
2018-03-07T04:53:57.418Z,32.6
2018-03-07T04:54:47.162Z,33.4
2018-03-07T04:55:37.274Z,34.2
2018-03-07T04:56:25.921Z,34.4
2018-03-07T04:57:19.030Z,34
2018-03-07T04:58:08.762Z,33.8
2018-03-07T04:58:58.553Z,33.6
2018-03-07T04:59:48.302Z,33.4
2018-03-07T05:00:38.364Z,33.4
2018-03-07T05:01:29.067Z,33.3
2018-03-07T05:02:18.764Z,33.2
2018-03-07T05:03:09.394Z,33.1
2018-03-07T05:03:58.847Z,32.9
2018-03-07T05:04:49.476Z,32.8
2018-03-07T05:05:38.712Z,32.6
2018-03-07T05:06:29.059Z,32.4
2018-03-07T05:07:19.639Z,32.3
2018-03-07T05:08:09.481Z,32.2
2018-03-07T05:08:59.467Z,32.1
2018-03-07T05:09:49.300Z,31.9
2018-03-07T05:10:39.926Z,31.8
2018-03-07T05:11:29.660Z,31.7
2018-03-07T05:12:20.021Z,31.6
2018-03-07T05:13:09.200Z,31.4
2018-03-07T05:13:59.036Z,31.3
2018-03-07T05:14:49.907Z,31.2
2018-03-07T05:15:40.191Z,31.1
2018-03-07T05:16:30.003Z,30.9
2018-03-07T05:17:20.338Z,30.8
2018-03-07T05:18:09.933Z,30.7
2018-03-07T05:19:00.432Z,30.5
2018-03-07T05:19:50.223Z,30.4
2018-03-07T05:20:40.359Z,29.9
2018-03-07T05:21:30.659Z,30.3
2018-03-07T05:22:20.437Z,30.9
2018-03-07T05:23:10.474Z,31.6
2018-03-07T05:23:59.682Z,32.4
2018-03-07T05:24:50.669Z,33.1
2018-03-07T05:25:40.649Z,33.9
2018-03-07T05:26:29.582Z,34.4
2018-03-07T05:27:20.525Z,34
2018-03-07T05:28:10.277Z,33.8
2018-03-07T05:29:00.864Z,33.6
2018-03-07T05:29:50.949Z,33.6
2018-03-07T05:30:40.434Z,33.4
2018-03-07T05:31:31.097Z,33.3
2018-03-07T05:32:20.837Z,33.2
2018-03-07T05:33:11.414Z,33
2018-03-07T05:34:00.931Z,32.9
2018-03-07T05:34:51.547Z,32.7
2018-03-07T05:35:41.431Z,32.6
2018-03-07T05:36:31.399Z,32.4
2018-03-07T05:37:21.762Z,32.3
2018-03-07T05:38:11.827Z,32.1
2018-03-07T05:39:01.546Z,32.1
2018-03-07T05:39:51.373Z,31.9
2018-03-07T05:40:41.423Z,31.8
2018-03-07T05:41:31.443Z,31.7
2018-03-07T05:42:22.033Z,31.5
2018-03-07T05:43:11.898Z,31.4
2018-03-07T05:44:01.066Z,31.3
2018-03-07T05:44:51.385Z,31.1
2018-03-07T05:45:41.514Z,31
2018-03-07T05:46:32.065Z,30.9
2018-03-07T05:47:21.867Z,30.8
2018-03-07T05:48:11.908Z,30.6
2018-03-07T05:49:02.316Z,30.6
2018-03-07T05:49:52.028Z,30.4
2018-03-07T05:50:41.814Z,30.1
2018-03-07T05:51:32.427Z,30.7
2018-03-07T05:52:21.941Z,31.4
2018-03-07T05:53:12.290Z,32.1
2018-03-07T05:54:02.298Z,33
2018-03-07T05:54:52.378Z,33.8
2018-03-07T05:55:41.851Z,34.6
2018-03-07T05:56:32.504Z,34.3
2018-03-07T05:57:22.030Z,34
2018-03-07T05:58:13.136Z,33.8
2018-03-07T05:59:02.932Z,33.7
2018-03-07T05:59:52.718Z,33.6
2018-03-07T06:00:42.735Z,33.5
2018-03-07T06:01:32.893Z,33.4
2018-03-07T06:02:22.614Z,33.3
2018-03-07T06:03:13.498Z,33.2
2018-03-07T06:04:03.285Z,33
2018-03-07T06:04:52.494Z,32.9
2018-03-07T06:05:43.102Z,32.8
2018-03-07T06:06:32.601Z,32.6
2018-03-07T06:07:22.673Z,32.5
2018-03-07T06:08:13.290Z,32.4
2018-03-07T06:09:03.628Z,32.3
2018-03-07T06:09:53.677Z,32.1
2018-03-07T06:10:42.899Z,32
2018-03-07T06:11:33.232Z,31.9
2018-03-07T06:12:23.296Z,31.8
2018-03-07T06:13:13.087Z,31.6
2018-03-07T06:14:03.959Z,31.5
2018-03-07T06:14:53.717Z,31.4
2018-03-07T06:15:44.363Z,31.3
2018-03-07T06:16:33.854Z,31.1
2018-03-07T06:17:23.964Z,30.9
2018-03-07T06:18:14.500Z,30.5
2018-03-07T06:19:03.739Z,30.9
2018-03-07T06:19:54.056Z,31.7
2018-03-07T06:20:44.415Z,32.5
2018-03-07T06:21:33.766Z,33.4
2018-03-07T06:22:23.522Z,34.4
2018-03-07T06:23:14.249Z,34.6
2018-03-07T06:24:04.451Z,34.3
2018-03-07T06:24:53.645Z,34.1
2018-03-07T06:25:44.007Z,33.9
2018-03-07T06:26:34.589Z,33.9
2018-03-07T06:27:24.073Z,33.8
2018-03-07T06:28:14.411Z,33.7
2018-03-07T06:29:04.723Z,33.6
2018-03-07T06:29:54.287Z,33.4
2018-03-07T06:30:44.271Z,33.3
2018-03-07T06:31:34.953Z,33.3
2018-03-07T06:32:24.981Z,33.1
2018-03-07T06:33:15.553Z,32.9
2018-03-07T06:34:05.419Z,32.8
2018-03-07T06:34:55.156Z,32.7
2018-03-07T06:35:45.236Z,32.5
2018-03-07T06:36:35.288Z,32.4
2018-03-07T06:37:25.258Z,32.3
2018-03-07T06:38:14.763Z,32.1
2018-03-07T06:39:05.706Z,32
2018-03-07T06:39:53.661Z,31.9
2018-03-07T06:40:45.574Z,31.8
2018-03-07T06:41:34.765Z,31.6
2018-03-07T06:42:24.582Z,31.4
2018-03-07T06:43:14.492Z,31.3
2018-03-07T06:44:04.132Z,31.2
2018-03-07T06:44:54.535Z,31.1
2018-03-07T06:45:42.689Z,31
2018-03-07T06:46:34.238Z,30.9
2018-03-07T06:47:24.687Z,30.6
2018-03-07T06:48:15.277Z,30.5
2018-03-07T06:49:04.293Z,31.2
2018-03-07T06:49:54.458Z,32
2018-03-07T06:50:45.482Z,32.8
2018-03-07T06:51:34.547Z,33.8
2018-03-07T06:52:24.719Z,34.6
2018-03-07T06:53:16.146Z,34.3
2018-03-07T06:54:05.176Z,34.1
2018-03-07T06:54:55.724Z,34
2018-03-07T06:55:46.072Z,33.9
2018-03-07T06:56:33.809Z,33.8
2018-03-07T06:57:25.065Z,33.8
2018-03-07T06:58:16.175Z,33.6
2018-03-07T06:59:05.022Z,33.5
2018-03-07T06:59:57.376Z,33.4
2018-03-07T07:00:47.174Z,33.3
2018-03-07T07:01:37.246Z,33.1
2018-03-07T07:02:27.023Z,33
2018-03-07T07:03:17.352Z,32.8
2018-03-07T07:04:06.987Z,32.7
2018-03-07T07:04:56.889Z,32.6
2018-03-07T07:05:47.766Z,32.4
2018-03-07T07:06:37.886Z,32.3
2018-03-07T07:07:27.399Z,32.1
2018-03-07T07:08:17.433Z,32
2018-03-07T07:09:07.222Z,31.9
2018-03-07T07:09:56.991Z,31.8
2018-03-07T07:10:47.558Z,31.6
2018-03-07T07:11:38.013Z,31.4
2018-03-07T07:12:27.722Z,31.3
2018-03-07T07:13:17.503Z,31.2
2018-03-07T07:14:07.529Z,31.1
2018-03-07T07:14:56.030Z,30.9
2018-03-07T07:15:46.736Z,30.8
2018-03-07T07:16:36.436Z,30.7
2018-03-07T07:17:26.386Z,30.6
2018-03-07T07:18:16.805Z,30.4
2018-03-07T07:19:06.066Z,31.1
2018-03-07T07:19:56.636Z,31.9
2018-03-07T07:20:47.705Z,32.9
2018-03-07T07:21:38.100Z,33.9
2018-03-07T07:22:27.585Z,34.6
2018-03-07T07:23:17.742Z,34.2
2018-03-07T07:24:07.991Z,34.1
2018-03-07T07:24:57.577Z,33.9
2018-03-07T07:25:47.537Z,33.8
2018-03-07T07:26:38.963Z,33.8
2018-03-07T07:27:28.744Z,33.7
2018-03-07T07:28:19.090Z,33.6
2018-03-07T07:29:09.153Z,33.5
2018-03-07T07:29:58.460Z,33.3
2018-03-07T07:30:49.270Z,33.2
2018-03-07T07:31:39.288Z,33.1
2018-03-07T07:32:28.871Z,32.9
2018-03-07T07:33:17.548Z,32.8
2018-03-07T07:34:07.532Z,32.6
2018-03-07T07:34:57.702Z,32.5
2018-03-07T07:35:48.282Z,32.4
2018-03-07T07:36:38.736Z,32.3
2018-03-07T07:37:28.376Z,32.1
2018-03-07T07:38:19.042Z,31.9
2018-03-07T07:39:08.163Z,31.8
2018-03-07T07:39:58.929Z,31.7
2018-03-07T07:40:47.627Z,31.6
2018-03-07T07:41:39.097Z,31.4
2018-03-07T07:42:28.970Z,31.3
2018-03-07T07:43:20.661Z,31.2
2018-03-07T07:44:10.532Z,31.1
2018-03-07T07:44:59.685Z,30.9
2018-03-07T07:45:50.063Z,30.9
2018-03-07T07:46:39.816Z,30.8
2018-03-07T07:47:30.637Z,30.6
2018-03-07T07:48:20.765Z,30.4
2018-03-07T07:49:10.297Z,31.1
2018-03-07T07:50:00.579Z,32
2018-03-07T07:50:50.539Z,32.9
2018-03-07T07:51:40.437Z,33.9
2018-03-07T07:52:30.249Z,34.6
2018-03-07T07:53:20.848Z,34.3
2018-03-07T07:55:28.288Z,34.1
2018-03-07T07:55:38.391Z,33.8
2018-03-07T07:56:29.769Z,33.8
2018-03-07T07:57:19.813Z,33.6
2018-03-07T07:58:10.148Z,33.6
2018-03-07T07:58:59.929Z,33.4
2018-03-07T07:59:50.836Z,33.3
2018-03-07T08:00:40.656Z,33.2
2018-03-07T08:01:29.186Z,33.1
2018-03-07T08:02:18.068Z,33
2018-03-07T08:03:10.273Z,32.8
2018-03-07T08:03:59.476Z,32.7
2018-03-07T08:05:13.116Z,32.4
2018-03-07T08:06:04.085Z,32.4
2018-03-07T08:06:54.095Z,32.2
2018-03-07T08:07:42.898Z,32.1
2018-03-07T08:08:46.252Z,31.9
2018-03-07T08:09:24.800Z,31.8
2018-03-07T08:10:13.515Z,31.7
2018-03-07T08:11:03.308Z,31.6
2018-03-07T08:12:35.322Z,31.4
2018-03-07T08:13:35.446Z,31.2
2018-03-07T08:14:25.135Z,31.1
2018-03-07T08:15:14.823Z,31
2018-03-07T08:16:56.665Z,30.4
2018-03-07T08:17:46.735Z,30.3
2018-03-07T08:18:36.757Z,30.9
2018-03-07T08:19:27.134Z,31.8
2018-03-07T08:20:17.546Z,32.8
2018-03-07T08:21:06.661Z,33.8
2018-03-07T08:21:57.049Z,34.7
2018-03-07T08:22:47.656Z,34.4
2018-03-07T08:23:37.426Z,34.2
2018-03-07T08:24:27.762Z,34.1
2018-03-07T08:25:17.527Z,33.9
2018-03-07T08:26:07.881Z,33.9
2018-03-07T08:26:57.967Z,33.8
2018-03-07T08:27:48.132Z,33.8
2018-03-07T08:28:38.091Z,33.6
2018-03-07T08:29:28.150Z,33.5
2018-03-07T08:30:17.630Z,33.4
2018-03-07T08:31:08.264Z,33.3
2018-03-07T08:31:57.711Z,33.2
2018-03-07T08:32:47.789Z,33
2018-03-07T08:33:38.147Z,32.9
2018-03-07T08:34:28.277Z,32.8
2018-03-07T08:35:18.252Z,32.6
2018-03-07T08:36:08.333Z,32.4
2018-03-07T08:36:57.769Z,32.3
2018-03-07T08:37:48.437Z,32.2
2018-03-07T08:38:37.998Z,32.1
2018-03-07T08:39:28.536Z,31.9
2018-03-07T08:40:18.309Z,31.8
2018-03-07T08:41:08.370Z,31.6
2018-03-07T08:41:58.998Z,31.5
2018-03-07T08:42:48.756Z,31.4
2018-03-07T08:43:39.116Z,31.3
2018-03-07T08:44:28.716Z,31.2
2018-03-07T08:45:18.910Z,31.1
2018-03-07T08:46:09.678Z,30.9
2018-03-07T08:46:58.479Z,30.8
2018-03-07T08:47:49.150Z,30.4
2018-03-07T08:48:39.425Z,30.9
2018-03-07T08:49:29.458Z,31.9
2018-03-07T08:50:19.593Z,32.8
2018-03-07T08:51:09.025Z,33.9
2018-03-07T08:51:59.663Z,34.9
2018-03-07T08:52:49.130Z,34.6
2018-03-07T08:53:39.210Z,34.4
2018-03-07T08:54:28.526Z,34.3
2018-03-07T08:55:19.348Z,34.1
2018-03-07T08:56:09.678Z,34.1
2018-03-07T08:56:58.835Z,34
2018-03-07T08:57:49.860Z,33.9
2018-03-07T08:58:39.860Z,33.8
2018-03-07T08:59:26.718Z,33.7
2018-03-07T09:00:19.378Z,33.6
2018-03-07T09:01:09.161Z,33.4
2018-03-07T09:01:58.633Z,33.3
2018-03-07T09:02:48.428Z,33.1
2018-03-07T09:03:37.901Z,33
2018-03-07T09:04:29.118Z,32.9
2018-03-07T09:05:19.873Z,32.7
2018-03-07T09:06:09.363Z,32.6
2018-03-07T09:06:59.959Z,32.4
2018-03-07T09:07:49.635Z,32.3
2018-03-07T09:08:40.557Z,32.1
2018-03-07T09:09:30.288Z,32
2018-03-07T09:10:21.189Z,31.9
2018-03-07T09:11:10.988Z,31.8
2018-03-07T09:12:00.475Z,31.6
2018-03-07T09:12:50.288Z,31.5
2018-03-07T09:13:40.888Z,31.4
2018-03-07T09:14:30.966Z,31.3
2018-03-07T09:15:21.008Z,31.1
2018-03-07T09:16:10.539Z,31
2018-03-07T09:17:01.424Z,30.9
2018-03-07T09:17:51.442Z,30.8
2018-03-07T09:18:40.946Z,30.8
2018-03-07T09:19:30.128Z,31.6
2018-03-07T09:20:21.421Z,32.6
2018-03-07T09:21:11.768Z,33.7
2018-03-07T09:22:01.784Z,34.9
2018-03-07T09:22:51.855Z,34.7
2018-03-07T09:23:41.072Z,34.4
2018-03-07T09:24:31.464Z,34.3
2018-03-07T09:25:20.565Z,34.3
2018-03-07T09:26:11.027Z,34.2
2018-03-07T09:27:01.856Z,34.1
2018-03-07T09:27:51.339Z,34
2018-03-07T09:28:41.684Z,33.9
2018-03-07T09:29:31.218Z,33.8
2018-03-07T09:30:21.804Z,33.6
2018-03-07T09:31:11.818Z,33.4
2018-03-07T09:32:02.034Z,33.3
2018-03-07T09:32:52.273Z,33
2018-03-07T09:33:41.731Z,32.9
2018-03-07T09:34:32.187Z,32.8
2018-03-07T09:35:22.112Z,32.6
2018-03-07T09:36:11.441Z,32.5
2018-03-07T09:37:01.966Z,32.4
2018-03-07T09:37:52.868Z,32.2
2018-03-07T09:38:42.663Z,32
2018-03-07T09:39:32.411Z,31.9
2018-03-07T09:40:23.031Z,31.8
2018-03-07T09:41:12.546Z,31.6
2018-03-07T09:42:02.911Z,31.5
2018-03-07T09:42:52.917Z,31.4
2018-03-07T09:43:43.277Z,31.3
2018-03-07T09:44:33.102Z,31.1
2018-03-07T09:45:22.846Z,31
2018-03-07T09:46:13.362Z,30.9
2018-03-07T09:47:02.674Z,30.8
2018-03-07T09:47:52.265Z,30.7
2018-03-07T09:48:42.321Z,30.6
2018-03-07T09:49:32.635Z,30.4
2018-03-07T09:50:22.735Z,30.3
2018-03-07T09:51:13.201Z,30.2
2018-03-07T09:52:01.640Z,30.1
2018-03-07T09:52:50.690Z,29.9
2018-03-07T09:53:41.179Z,29.9
2018-03-07T09:54:33.084Z,29.8
2018-03-07T09:55:21.967Z,29.6
2018-03-07T09:56:12.832Z,29.5
2018-03-07T09:57:01.633Z,29.4
2018-03-07T09:57:52.255Z,29.3
2018-03-07T09:58:43.388Z,29.2
2018-03-07T09:59:32.885Z,29.1
2018-03-07T10:00:21.176Z,29
2018-03-07T10:01:11.734Z,28.9
2018-03-07T10:02:02.756Z,28.8
2018-03-07T10:02:52.027Z,28.7
2018-03-07T10:03:42.851Z,28.6
2018-03-07T10:04:32.353Z,28.5
2018-03-07T10:05:23.806Z,28.4
2018-03-07T10:06:13.297Z,28.3
2018-03-07T10:07:04.411Z,28.2
2018-03-07T10:07:54.191Z,28.9
2018-03-07T10:08:43.672Z,30
2018-03-07T10:09:34.309Z,31
2018-03-07T10:10:24.126Z,32.1
2018-03-07T10:11:13.899Z,33.3
2018-03-07T10:12:05.012Z,34.4
2018-03-07T10:12:54.028Z,34.3
2018-03-07T10:13:44.589Z,34.1
2018-03-07T10:14:34.563Z,34
2018-03-07T10:15:24.528Z,33.9
2018-03-07T10:17:48.449Z,33.8
2018-03-07T10:17:59.478Z,33.6
2018-03-07T10:18:49.019Z,33.6
2018-03-07T10:19:39.440Z,33.4
2018-03-07T10:20:29.423Z,33.3
2018-03-07T10:21:19.802Z,33.1
2018-03-07T10:22:10.350Z,32.9
2018-03-07T10:23:00.722Z,32.8
2018-03-07T10:23:50.736Z,32.6
2018-03-07T10:24:40.239Z,32.5
2018-03-07T10:25:30.566Z,32.4
2018-03-07T10:26:20.677Z,32.3
2018-03-07T10:27:10.425Z,32.1
2018-03-07T10:28:00.348Z,31.9
2018-03-07T10:28:50.086Z,31.8
2018-03-07T10:29:40.685Z,31.7
2018-03-07T10:30:30.186Z,31.6
2018-03-07T10:31:20.717Z,31.4
2018-03-07T10:32:10.570Z,31.3
2018-03-07T10:33:00.751Z,31.2
2018-03-07T10:33:50.478Z,31.1
2018-03-07T10:34:41.027Z,30.9
2018-03-07T10:35:30.328Z,30.8
2018-03-07T10:36:20.755Z,30.7
2018-03-07T10:37:11.123Z,30.6
2018-03-07T10:38:01.247Z,30.4
2018-03-07T10:38:51.531Z,30.3
2018-03-07T10:39:41.663Z,30.2
2018-03-07T10:40:31.659Z,30.1
2018-03-07T10:41:21.105Z,30
2018-03-07T10:42:11.442Z,29.9
2018-03-07T10:43:02.074Z,29.8
2018-03-07T10:43:51.280Z,29.5
2018-03-07T10:44:42.240Z,29.3
2018-03-07T10:45:32.257Z,29
2018-03-07T10:46:22.045Z,28.7
2018-03-07T10:47:12.542Z,28.6
2018-03-07T10:48:02.230Z,28.6
2018-03-07T10:48:52.499Z,28.5
2018-03-07T10:49:42.579Z,28.5
2018-03-07T10:50:31.569Z,28.4
2018-03-07T10:51:22.141Z,28.4
2018-03-07T10:52:09.930Z,28.3
2018-03-07T10:53:01.024Z,28.3
2018-03-07T10:53:52.311Z,28.2
2018-03-07T10:54:41.466Z,28.1
2018-03-07T10:55:31.756Z,28.1
2018-03-07T10:56:21.323Z,28
2018-03-07T10:57:11.183Z,28
2018-03-07T10:58:01.629Z,28.4
2018-03-07T10:58:53.219Z,29.4
2018-03-07T10:59:43.243Z,30.6
2018-03-07T11:00:33.328Z,31.6
2018-03-07T11:01:22.521Z,32.6
2018-03-07T11:02:12.686Z,33.8
2018-03-07T11:03:03.027Z,34.8
2018-03-07T11:03:53.261Z,34.4
2018-03-07T11:04:43.362Z,34.3
2018-03-07T11:05:33.685Z,34.1
2018-03-07T11:06:23.464Z,33.9
2018-03-07T11:07:13.787Z,33.9
2018-03-07T11:08:03.570Z,33.8
2018-03-07T11:08:53.945Z,33.6
2018-03-07T11:09:43.084Z,33.5
2018-03-07T11:10:36.745Z,33.4
2018-03-07T11:11:23.751Z,33.3
2018-03-07T11:12:13.837Z,33.1